Terminal Aerodrome Forecast
Issued by NWS

Home | Current Version | Previous Version | Text Only | Print | Product List | Glossary Off
Versions: 1 2 3 4 5 6 7 8 9 10 11 12 13 14 15 16 17 18 19

009
FTUS43 KABR 251120
TAFMBG
TAF
KMBG 251120Z 2512/2612 10007KT 1/2SM FZFG OVC002
     FM251500 15013KT P6SM OVC020
     FM251700 16013KT P6SM SCT100
     FM260000 13008KT P6SM SCT200
     FM261100 VRB04KT P6SM OVC030=

USA.gov is the U.S. government's official web portal to all federal, state and local government web resources and services.